createdAt,value
2023-02-26T00:02:03.718Z,66.68
2023-02-26T00:04:38.459Z,66.84
2023-02-26T00:07:23.331Z,66.58
2023-02-26T00:09:55.215Z,65.93
2023-02-26T00:12:25.675Z,67.32
2023-02-26T00:14:55.630Z,68.31
2023-02-26T00:17:50.349Z,66.34
2023-02-26T00:20:22.143Z,66.90
2023-02-26T00:22:54.619Z,66.84
2023-02-26T00:25:22.340Z,66.22
2023-02-26T00:27:54.205Z,65.97
2023-02-26T00:30:22.369Z,66.24
2023-02-26T00:32:50.467Z,66.26
2023-02-26T00:35:18.902Z,66.63
2023-02-26T00:37:57.712Z,65.81
2023-02-26T00:40:31.194Z,66.79
2023-02-26T00:42:59.216Z,65.96
2023-02-26T00:45:27.566Z,66.88
2023-02-26T00:48:07.138Z,67.02
2023-02-26T00:50:35.144Z,66.85
2023-02-26T00:53:09.698Z,66.41
2023-02-26T00:55:37.394Z,66.44
2023-02-26T00:58:05.681Z,66.73
2023-02-26T01:00:33.483Z,66.72
2023-02-26T01:03:02.345Z,66.07
2023-02-26T01:05:31.583Z,66.17
2023-02-26T01:08:05.781Z,67.04
2023-02-26T01:10:34.371Z,67.30
2023-02-26T01:13:02.381Z,66.42
2023-02-26T01:15:37.775Z,66.80
2023-02-26T01:18:09.815Z,66.23
2023-02-26T01:20:41.524Z,66.81
2023-02-26T01:23:13.874Z,66.02
2023-02-26T01:25:45.421Z,66.47
2023-02-26T01:28:13.487Z,66.39
2023-02-26T01:30:41.551Z,65.78
2023-02-26T01:33:13.908Z,66.12
2023-02-26T01:35:44.150Z,66.22
2023-02-26T01:38:21.088Z,66.43
2023-02-26T01:41:19.801Z,66.57
2023-02-26T01:43:52.973Z,65.89
2023-02-26T01:46:26.337Z,65.84
2023-02-26T01:48:57.085Z,66.39
2023-02-26T01:51:47.975Z,66.65
2023-02-26T01:54:20.113Z,66.37
2023-02-26T01:56:52.019Z,66.74
2023-02-26T01:59:24.398Z,66.93
2023-02-26T02:01:56.022Z,67.14
2023-02-26T02:04:24.608Z,67.56
2023-02-26T02:06:53.718Z,67.29
2023-02-26T02:09:23.193Z,68.39
2023-02-26T02:18:39.726Z,69.59
2023-02-26T02:21:24.179Z,69.28
2023-02-26T02:23:56.439Z,69.69
2023-02-26T02:26:39.770Z,70.48
2023-02-26T02:29:53.500Z,70.93
2023-02-26T02:32:23.936Z,70.83
2023-02-26T02:34:54.319Z,71.60
2023-02-26T02:37:25.370Z,71.70
2023-02-26T02:39:55.783Z,71.67
2023-02-26T02:42:27.693Z,72.38
2023-02-26T02:44:58.926Z,72.63
2023-02-26T02:47:28.706Z,72.00
2023-02-26T02:50:06.083Z,72.12
2023-02-26T02:52:39.063Z,72.71
2023-02-26T02:55:10.836Z,72.71
2023-02-26T02:57:40.996Z,73.05
2023-02-26T03:00:11.761Z,73.12
2023-02-26T03:02:44.385Z,72.92
2023-02-26T03:05:12.156Z,72.64
2023-02-26T03:07:44.290Z,73.10
2023-02-26T03:10:21.612Z,73.11
2023-02-26T03:13:08.980Z,73.40
2023-02-26T03:15:40.971Z,73.23
2023-02-26T03:18:19.910Z,73.95
2023-02-26T03:20:56.245Z,73.44
2023-02-26T03:23:28.634Z,74.16
2023-02-26T03:25:58.885Z,74.78
2023-02-26T03:28:30.360Z,74.42
2023-02-26T03:31:00.947Z,74.74
2023-02-26T03:33:34.686Z,74.63
2023-02-26T03:36:06.540Z,74.74
2023-02-26T03:38:43.862Z,74.93
2023-02-26T03:41:14.275Z,74.97
2023-02-26T03:43:47.033Z,74.98
2023-02-26T03:46:17.679Z,74.73
2023-02-26T03:48:47.937Z,75.29
2023-02-26T03:51:16.261Z,75.26
2023-02-26T03:53:49.684Z,75.28
2023-02-26T03:56:19.845Z,74.54
2023-02-26T03:58:47.527Z,74.75
2023-02-26T04:01:18.606Z,75.07
2023-02-26T04:03:51.477Z,75.34
2023-02-26T04:06:20.331Z,75.15
2023-02-26T04:08:49.332Z,75.01
2023-02-26T04:11:21.108Z,75.74
2023-02-26T04:13:49.476Z,75.80
2023-02-26T04:16:18.685Z,75.71
2023-02-26T04:18:48.499Z,75.88
2023-02-26T04:21:18.913Z,76.35
2023-02-26T04:23:46.690Z,76.27
2023-02-26T04:26:14.345Z,75.93
2023-02-26T04:28:44.766Z,76.54
2023-02-26T04:31:12.630Z,76.09
2023-02-26T04:33:40.363Z,75.83
2023-02-26T04:36:10.496Z,76.01
2023-02-26T04:38:38.125Z,76.12
2023-02-26T04:41:07.948Z,75.92
2023-02-26T04:43:35.629Z,75.88
2023-02-26T04:46:03.516Z,75.47
2023-02-26T04:48:31.095Z,75.21
2023-02-26T04:54:28.923Z,75.56
2023-02-26T04:56:56.884Z,75.45
2023-02-26T04:59:24.461Z,75.55
2023-02-26T05:01:52.107Z,75.48
2023-02-26T05:04:22.008Z,75.63
2023-02-26T05:06:49.650Z,75.10
2023-02-26T05:09:17.207Z,75.19
2023-02-26T05:11:47.349Z,74.92
2023-02-26T05:14:16.166Z,75.08
2023-02-26T05:16:43.675Z,74.70
2023-02-26T05:19:11.335Z,74.46
2023-02-26T05:21:39.017Z,74.86
2023-02-26T05:24:07.060Z,74.40
2023-02-26T05:26:34.645Z,74.04
2023-02-26T05:29:03.579Z,74.52
2023-02-26T05:31:31.188Z,73.90
2023-02-26T05:33:58.747Z,74.35
2023-02-26T05:36:26.729Z,74.54
2023-02-26T05:38:55.017Z,74.67
2023-02-26T05:41:22.899Z,74.13
2023-02-26T05:43:52.948Z,74.28
2023-02-26T05:46:21.882Z,74.24
2023-02-26T05:48:49.863Z,74.11
2023-02-26T05:51:17.977Z,73.82
2023-02-26T05:53:46.538Z,73.88
2023-02-26T05:56:17.741Z,73.84
2023-02-26T05:58:48.077Z,74.08
2023-02-26T06:01:21.281Z,74.04
2023-02-26T06:03:52.341Z,74.17
2023-02-26T06:06:35.840Z,73.76
2023-02-26T06:09:03.672Z,74.51
2023-02-26T06:11:35.892Z,73.99
2023-02-26T06:14:03.579Z,74.18
2023-02-26T06:16:32.798Z,73.75
2023-02-26T06:19:01.862Z,74.00
2023-02-26T06:21:29.658Z,73.31
2023-02-26T06:23:59.394Z,73.12
2023-02-26T06:26:27.581Z,73.98
2023-02-26T06:28:55.400Z,73.61
2023-02-26T06:31:23.057Z,73.76
2023-02-26T06:33:50.706Z,73.85
2023-02-26T06:36:19.742Z,74.21
2023-02-26T06:38:47.645Z,73.58
2023-02-26T06:41:15.202Z,74.07
2023-02-26T06:43:42.988Z,73.68
2023-02-26T06:46:10.797Z,73.95
2023-02-26T06:48:38.722Z,73.96
2023-02-26T06:51:07.554Z,73.99
2023-02-26T06:53:36.751Z,73.59
2023-02-26T06:56:04.953Z,73.54
2023-02-26T06:58:32.814Z,73.89
2023-02-26T07:01:00.513Z,73.76
2023-02-26T07:03:28.112Z,73.22
2023-02-26T07:05:56.248Z,73.22
2023-02-26T07:08:24.209Z,73.61
2023-02-26T07:10:53.543Z,72.92
2023-02-26T07:13:23.458Z,73.05
2023-02-26T07:15:51.117Z,73.38
2023-02-26T07:18:18.631Z,73.62
2023-02-26T07:20:46.207Z,72.59
2023-02-26T07:23:13.842Z,73.02
2023-02-26T07:25:45.869Z,72.80
2023-02-26T07:28:15.073Z,72.48
2023-02-26T07:30:43.210Z,72.51
2023-02-26T07:33:13.293Z,72.31
2023-02-26T07:35:41.484Z,72.31
2023-02-26T07:38:09.055Z,72.33
2023-02-26T07:40:36.746Z,71.50
2023-02-26T07:43:51.192Z,71.39
2023-02-26T07:46:12.168Z,71.19
2023-02-26T07:49:00.869Z,71.42
2023-02-26T07:54:27.921Z,71.53
2023-02-26T07:56:55.906Z,70.45
2023-02-26T07:59:23.996Z,70.40
2023-02-26T08:01:53.089Z,70.06
2023-02-26T08:04:21.337Z,69.80
2023-02-26T08:06:48.963Z,70.26
2023-02-26T08:09:17.168Z,68.74
2023-02-26T08:21:32.017Z,68.32
2023-02-26T08:24:06.177Z,69.00
2023-02-26T08:26:38.355Z,67.80
2023-02-26T08:29:06.892Z,67.85
2023-02-26T08:31:36.229Z,67.01
2023-02-26T08:34:09.354Z,66.63
2023-02-26T08:36:37.905Z,66.49
2023-02-26T08:39:09.942Z,66.74
2023-02-26T08:41:41.801Z,67.13
2023-02-26T08:44:18.749Z,65.63
2023-02-26T08:46:50.929Z,66.26
2023-02-26T08:50:24.507Z,65.68
2023-02-26T08:53:30.705Z,65.85
2023-02-26T08:56:00.746Z,65.36
2023-02-26T08:58:28.651Z,64.82
2023-02-26T09:01:02.023Z,65.03
2023-02-26T09:03:32.346Z,65.22
2023-02-26T09:06:06.215Z,64.06
2023-02-26T09:08:35.015Z,64.48
2023-02-26T09:11:04.396Z,64.17
2023-02-26T09:13:32.867Z,64.71
2023-02-26T09:16:00.693Z,64.23
2023-02-26T09:18:29.609Z,64.92
2023-02-26T09:20:57.224Z,64.94
2023-02-26T09:23:26.078Z,64.45
2023-02-26T09:25:55.055Z,64.33
2023-02-26T09:28:22.813Z,64.27
2023-02-26T09:30:52.613Z,63.59
2023-02-26T09:33:20.607Z,63.38
2023-02-26T09:35:49.500Z,62.90
2023-02-26T09:38:17.105Z,63.77
2023-02-26T09:40:51.277Z,63.19
2023-02-26T09:43:58.007Z,63.13
2023-02-26T09:46:36.087Z,63.27
2023-02-26T09:49:11.155Z,63.21
2023-02-26T09:51:38.717Z,63.76
2023-02-26T09:54:16.100Z,62.88
2023-02-26T09:56:45.830Z,63.14
2023-02-26T09:59:13.499Z,62.98
2023-02-26T10:01:44.032Z,62.23
2023-02-26T10:04:20.638Z,62.67
2023-02-26T10:07:10.044Z,63.14
2023-02-26T10:09:48.350Z,62.12
2023-02-26T10:12:19.310Z,62.26
2023-02-26T10:14:52.341Z,61.84
2023-02-26T10:17:23.561Z,61.88
2023-02-26T10:19:55.005Z,61.90
2023-02-26T10:22:25.784Z,62.01
2023-02-26T10:24:57.830Z,61.08
2023-02-26T10:27:38.485Z,60.45
2023-02-26T10:30:10.439Z,60.98
2023-02-26T10:32:39.971Z,60.15
2023-02-26T10:35:11.433Z,60.29
2023-02-26T10:37:45.452Z,59.65
2023-02-26T10:40:15.964Z,59.79
2023-02-26T10:42:47.953Z,58.47
2023-02-26T10:45:26.553Z,59.52
2023-02-26T10:48:01.807Z,58.65
2023-02-26T10:50:30.494Z,58.61
2023-02-26T10:52:58.816Z,59.21
2023-02-26T10:55:30.923Z,58.48
2023-02-26T10:58:05.923Z,57.62
2023-02-26T11:00:35.454Z,57.75
2023-02-26T11:03:05.738Z,57.80
2023-02-26T11:05:34.597Z,58.56
2023-02-26T11:08:04.903Z,57.94
2023-02-26T11:10:41.800Z,56.68
2023-02-26T11:13:12.919Z,57.61
2023-02-26T11:15:41.321Z,57.24
2023-02-26T11:18:16.866Z,56.87
2023-02-26T11:20:46.507Z,56.41
2023-02-26T11:23:17.337Z,56.93
2023-02-26T11:25:45.778Z,55.82
2023-02-26T11:28:23.589Z,56.97
2023-02-26T11:30:54.232Z,56.15
2023-02-26T11:33:28.874Z,57.33
2023-02-26T11:36:00.033Z,56.80
2023-02-26T11:38:28.556Z,55.99
2023-02-26T11:40:57.769Z,56.84
2023-02-26T11:43:28.868Z,55.89
2023-02-26T11:46:00.665Z,55.97
2023-02-26T11:48:31.946Z,55.67
2023-02-26T11:51:01.762Z,55.21
2023-02-26T11:53:33.699Z,55.09
2023-02-26T11:56:03.729Z,54.11
2023-02-26T11:58:37.384Z,54.37
2023-02-26T12:01:05.940Z,55.37
2023-02-26T12:03:34.830Z,56.16
2023-02-26T12:06:04.337Z,55.44
2023-02-26T12:08:38.264Z,54.86
2023-02-26T12:11:35.638Z,54.91
2023-02-26T12:14:13.537Z,54.46
2023-02-26T12:16:49.609Z,55.20
2023-02-26T12:19:21.799Z,55.44
2023-02-26T12:22:23.293Z,55.31
2023-02-26T12:25:21.634Z,53.67
2023-02-26T12:28:05.191Z,52.72
2023-02-26T12:30:49.487Z,53.22
2023-02-26T12:33:24.736Z,54.16
2023-02-26T12:36:01.795Z,54.53
2023-02-26T12:38:31.640Z,54.29
2023-02-26T12:41:14.982Z,54.40
2023-02-26T12:43:47.311Z,54.65
2023-02-26T12:46:23.794Z,54.36
2023-02-26T12:49:15.889Z,53.28
2023-02-26T12:51:55.539Z,52.60
2023-02-26T12:54:36.424Z,52.89
2023-02-26T12:57:20.778Z,53.37
2023-02-26T13:00:16.116Z,52.88
2023-02-26T13:03:22.075Z,52.46
2023-02-26T13:06:19.288Z,51.57
2023-02-26T13:08:54.012Z,52.64
2023-02-26T13:11:28.087Z,51.59
2023-02-26T13:14:10.744Z,51.11
2023-02-26T13:16:47.244Z,51.51
2023-02-26T13:19:26.036Z,50.74
2023-02-26T13:21:58.198Z,50.55
2023-02-26T13:24:29.768Z,50.96
2023-02-26T13:26:57.306Z,50.44
2023-02-26T13:29:27.231Z,50.38
2023-02-26T13:31:59.506Z,51.07
2023-02-26T13:34:36.177Z,50.20
2023-02-26T13:37:06.428Z,50.27
2023-02-26T13:39:43.088Z,50.30
2023-02-26T13:42:26.453Z,50.67
2023-02-26T13:45:04.151Z,51.02
2023-02-26T13:47:42.436Z,51.65
2023-02-26T13:50:22.123Z,51.45
2023-02-26T13:52:55.853Z,51.43
2023-02-26T13:55:44.022Z,51.80
2023-02-26T13:58:29.059Z,50.92
2023-02-26T14:01:02.252Z,50.94
2023-02-26T14:03:34.779Z,50.84
2023-02-26T14:06:11.708Z,50.48
2023-02-26T14:08:49.275Z,50.53
2023-02-26T14:11:53.432Z,49.29
2023-02-26T14:14:27.392Z,50.25
2023-02-26T14:16:56.674Z,49.55
2023-02-26T14:19:28.759Z,49.94
2023-02-26T14:21:58.838Z,51.95
2023-02-26T14:24:36.528Z,53.55
2023-02-26T14:27:25.686Z,54.77
2023-02-26T14:30:03.694Z,54.63
2023-02-26T14:32:32.712Z,54.91
2023-02-26T14:35:04.882Z,54.55
2023-02-26T14:37:38.022Z,54.46
2023-02-26T14:40:12.585Z,54.21
2023-02-26T14:42:44.128Z,54.34
2023-02-26T14:45:29.024Z,54.28
2023-02-26T14:47:57.920Z,51.76
2023-02-26T14:50:27.427Z,51.43
2023-02-26T14:53:09.759Z,52.07
2023-02-26T14:55:46.672Z,53.62
2023-02-26T14:58:31.678Z,51.60
2023-02-26T15:01:19.534Z,52.16
2023-02-26T15:04:41.453Z,52.77
2023-02-26T15:07:36.646Z,52.44
2023-02-26T15:10:18.459Z,52.35
2023-02-26T15:12:59.821Z,51.99
2023-02-26T15:15:40.412Z,52.13
2023-02-26T15:18:21.206Z,52.11
2023-02-26T15:21:04.653Z,51.81
2023-02-26T15:23:40.440Z,50.92
2023-02-26T15:26:11.336Z,51.14
2023-02-26T15:28:42.091Z,50.27
2023-02-26T15:31:13.592Z,50.38
2023-02-26T15:33:41.786Z,50.87
2023-02-26T15:36:13.953Z,50.80
2023-02-26T15:38:44.130Z,50.19
2023-02-26T15:41:12.866Z,50.61
2023-02-26T15:43:45.941Z,50.63
2023-02-26T15:46:13.551Z,51.06
2023-02-26T15:48:42.747Z,51.36
2023-02-26T15:51:14.189Z,52.18
2023-02-26T15:53:44.945Z,52.34
2023-02-26T15:56:14.969Z,51.05
2023-02-26T15:58:46.356Z,50.18
2023-02-26T16:01:17.057Z,51.18
2023-02-26T16:03:44.761Z,50.77
2023-02-26T16:06:14.572Z,51.37
2023-02-26T16:08:43.032Z,51.41
2023-02-26T16:11:11.740Z,51.83
2023-02-26T16:13:43.842Z,51.71
2023-02-26T16:16:19.331Z,51.82
2023-02-26T16:18:47.278Z,51.96
2023-02-26T16:21:29.645Z,51.73
2023-02-26T16:23:58.267Z,51.63
2023-02-26T16:26:31.427Z,52.14
2023-02-26T16:29:01.872Z,52.09
2023-02-26T16:31:33.678Z,51.67
2023-02-26T16:34:02.883Z,51.29
2023-02-26T16:36:33.117Z,51.23
2023-02-26T16:39:04.074Z,50.93
2023-02-26T16:41:35.040Z,51.42
2023-02-26T16:44:05.404Z,51.02
2023-02-26T16:46:38.902Z,51.11
2023-02-26T16:49:11.674Z,51.54
2023-02-26T16:51:41.058Z,51.75
2023-02-26T16:54:15.000Z,52.37
2023-02-26T16:56:44.117Z,51.77
2023-02-26T16:59:16.796Z,52.24
2023-02-26T17:01:54.971Z,52.43
2023-02-26T17:04:24.731Z,52.69
2023-02-26T17:06:53.243Z,52.99
2023-02-26T17:09:36.971Z,53.28
2023-02-26T17:12:16.588Z,53.01
2023-02-26T17:14:48.359Z,53.14
2023-02-26T17:17:19.714Z,53.22
2023-02-26T17:19:49.071Z,53.26
2023-02-26T17:22:18.966Z,53.42
2023-02-26T17:24:47.441Z,53.10
2023-02-26T17:27:17.804Z,53.20
2023-02-26T17:29:48.922Z,53.64
2023-02-26T17:32:22.771Z,53.25
2023-02-26T17:34:50.619Z,53.08
2023-02-26T17:37:22.748Z,52.64
2023-02-26T17:39:50.363Z,53.06
2023-02-26T17:42:21.352Z,53.21
2023-02-26T17:44:49.588Z,52.84
2023-02-26T17:47:21.220Z,53.28
2023-02-26T17:49:49.271Z,53.29
2023-02-26T17:52:17.514Z,53.39
2023-02-26T17:54:45.616Z,53.95
2023-02-26T17:57:17.718Z,53.40
2023-02-26T17:59:46.168Z,53.21
2023-02-26T18:02:19.443Z,53.52
2023-02-26T18:04:47.152Z,53.85
2023-02-26T18:07:16.616Z,53.57
2023-02-26T18:09:44.773Z,53.34
2023-02-26T18:12:15.425Z,54.01
2023-02-26T18:14:44.477Z,53.91
2023-02-26T18:17:14.596Z,54.01
2023-02-26T18:19:44.295Z,54.49
2023-02-26T18:22:17.532Z,54.46
2023-02-26T18:24:45.419Z,55.07
2023-02-26T18:27:15.816Z,54.58
2023-02-26T18:29:44.233Z,54.75
2023-02-26T18:32:17.331Z,55.07
2023-02-26T18:34:46.693Z,54.77
2023-02-26T18:37:16.215Z,54.28
2023-02-26T18:39:44.183Z,54.29
2023-02-26T18:42:21.207Z,54.91
2023-02-26T18:44:49.411Z,55.01
2023-02-26T18:47:17.410Z,54.62
2023-02-26T18:49:49.763Z,54.25
2023-02-26T18:52:17.891Z,54.36
2023-02-26T18:54:45.790Z,54.39
2023-02-26T18:57:17.074Z,53.81
2023-02-26T18:59:44.992Z,53.98
2023-02-26T19:02:18.458Z,54.28
2023-02-26T19:04:50.483Z,54.13
2023-02-26T19:07:20.871Z,54.49
2023-02-26T19:09:48.440Z,54.21
2023-02-26T19:12:19.973Z,54.47
2023-02-26T19:14:47.679Z,54.37
2023-02-26T19:17:15.308Z,54.46
2023-02-26T19:19:43.073Z,54.31
2023-02-26T19:22:13.994Z,54.48
2023-02-26T19:24:42.000Z,54.80
2023-02-26T19:27:14.009Z,54.51
2023-02-26T19:29:45.286Z,54.40
2023-02-26T19:32:13.054Z,54.41
2023-02-26T19:34:40.775Z,55.01
2023-02-26T19:37:10.583Z,54.41
2023-02-26T19:39:39.684Z,54.74
2023-02-26T19:42:07.430Z,54.27
2023-02-26T19:44:35.848Z,54.24
2023-02-26T19:47:03.966Z,54.03
2023-02-26T19:49:31.967Z,54.58
2023-02-26T19:52:00.844Z,53.94
2023-02-26T19:54:28.680Z,54.18
2023-02-26T19:56:57.695Z,54.30
2023-02-26T19:59:25.354Z,53.67
2023-02-26T20:01:53.020Z,54.12
2023-02-26T20:04:24.922Z,53.60
2023-02-26T20:06:53.767Z,54.37
2023-02-26T20:09:23.885Z,54.53
2023-02-26T20:11:51.445Z,54.62
2023-02-26T20:14:20.548Z,54.83
2023-02-26T20:16:49.262Z,54.99
2023-02-26T20:19:17.146Z,55.57
2023-02-26T20:21:44.998Z,56.07
2023-02-26T20:24:12.667Z,56.25
2023-02-26T20:26:48.988Z,56.04
2023-02-26T20:29:18.449Z,56.29
2023-02-26T20:31:49.914Z,56.57
2023-02-26T20:34:19.297Z,57.28
2023-02-26T20:36:48.259Z,57.41
2023-02-26T20:39:16.104Z,57.92
2023-02-26T20:41:43.822Z,57.54
2023-02-26T20:44:11.477Z,57.73
2023-02-26T20:46:39.747Z,56.99
2023-02-26T20:49:11.684Z,57.50
2023-02-26T20:51:40.142Z,57.91
2023-02-26T20:54:07.901Z,57.71
2023-02-26T20:56:35.527Z,57.84
2023-02-26T20:59:03.120Z,58.02
2023-02-26T21:01:35.692Z,58.19
2023-02-26T21:04:04.047Z,58.30
2023-02-26T21:06:34.059Z,58.46
2023-02-26T21:09:02.391Z,58.66
2023-02-26T21:11:31.510Z,58.66
2023-02-26T21:13:59.451Z,58.69
2023-02-26T21:16:28.371Z,58.72
2023-02-26T21:18:56.207Z,58.86
2023-02-26T21:21:24.219Z,58.74
2023-02-26T21:23:54.038Z,59.08
2023-02-26T21:26:22.189Z,59.26
2023-02-26T21:28:49.806Z,59.51
2023-02-26T21:31:19.596Z,59.07
2023-02-26T21:33:47.984Z,58.83
2023-02-26T21:36:15.808Z,59.10
2023-02-26T21:38:45.291Z,58.63
2023-02-26T21:41:25.426Z,59.02
2023-02-26T21:43:53.523Z,58.83
2023-02-26T21:46:22.808Z,59.38
2023-02-26T21:48:51.620Z,58.90
2023-02-26T21:51:21.347Z,59.07
2023-02-26T21:53:49.752Z,58.95
2023-02-26T21:56:20.259Z,58.92
2023-02-26T21:58:49.840Z,59.30
2023-02-26T22:01:27.498Z,59.52
2023-02-26T22:03:58.640Z,59.10
2023-02-26T22:06:36.379Z,59.83
2023-02-26T22:09:38.438Z,59.54
2023-02-26T22:12:13.121Z,59.47
2023-02-26T22:14:44.118Z,59.38
2023-02-26T22:17:15.735Z,59.81
2023-02-26T22:19:43.634Z,60.00
2023-02-26T22:22:13.342Z,59.72
2023-02-26T22:24:45.683Z,58.95
2023-02-26T22:27:13.337Z,59.36
2023-02-26T22:29:42.840Z,59.75
2023-02-26T22:32:11.002Z,59.40
2023-02-26T22:35:01.723Z,59.20
2023-02-26T22:37:35.247Z,59.21
2023-02-26T22:40:30.875Z,59.45
2023-02-26T22:42:59.638Z,59.64
2023-02-26T22:45:30.367Z,59.85
2023-02-26T22:47:59.226Z,60.48
2023-02-26T22:50:27.413Z,60.60
2023-02-26T22:52:55.218Z,60.60
2023-02-26T22:55:30.102Z,61.03
2023-02-26T22:58:02.103Z,60.67
2023-02-26T23:01:07.532Z,61.01
2023-02-26T23:03:35.368Z,60.79
2023-02-26T23:06:02.966Z,61.15
2023-02-26T23:08:30.526Z,61.26
2023-02-26T23:10:58.739Z,61.69
2023-02-26T23:13:27.192Z,61.47
2023-02-26T23:15:56.089Z,60.85
2023-02-26T23:18:23.707Z,61.58
2023-02-26T23:20:51.248Z,61.82
2023-02-26T23:23:18.898Z,61.69
2023-02-26T23:25:47.103Z,62.38
2023-02-26T23:28:14.628Z,62.23
2023-02-26T23:30:42.342Z,62.97
2023-02-26T23:33:11.377Z,62.60
2023-02-26T23:35:39.298Z,62.90
2023-02-26T23:38:07.318Z,62.64
2023-02-26T23:40:34.878Z,63.38
2023-02-26T23:43:02.404Z,63.56
2023-02-26T23:45:29.967Z,63.51
2023-02-26T23:47:57.505Z,63.69
2023-02-26T23:50:26.547Z,63.90
2023-02-26T23:52:54.105Z,63.75
2023-02-26T23:55:21.602Z,63.83
2023-02-26T23:57:49.156Z,64.58
